ADDS TAF Data INFO
IDs: Format: Raw Decoded Include METARs

Data at: 2147 UTC 24 Feb 2018

KEWN 241723Z 2418/2518 23011G17KT P6SM SCT040
  TEMPO 2418/2419 BKN025
  FM242300 19008KT P6SM SCT250
  FM251000 21006KT P6SM BKN010
  FM251400 21012G20KT P6SM SCT040